createdAt,value
2019-05-02T00:02:35.783Z,8.40
2019-05-02T00:05:27.445Z,8.40
2019-05-02T00:08:16.839Z,8.40
2019-05-02T00:11:05.817Z,8.40
2019-05-02T00:13:55.598Z,8.40
2019-05-02T00:16:49.106Z,8.50
2019-05-02T00:19:35.822Z,8.40
2019-05-02T00:22:25.274Z,8.50
2019-05-02T00:25:15.912Z,8.50
2019-05-02T00:28:07.707Z,8.50
2019-05-02T00:30:56.929Z,8.50
2019-05-02T00:33:46.642Z,8.50
2019-05-02T00:36:36.055Z,8.50
2019-05-02T00:39:25.488Z,8.50
2019-05-02T00:42:17.572Z,8.50
2019-05-02T00:45:06.458Z,8.50
2019-05-02T00:48:12.142Z,8.50
2019-05-02T00:51:00.829Z,8.50
2019-05-02T00:53:50.270Z,8.50
2019-05-02T00:56:40.233Z,8.40
2019-05-02T00:59:30.135Z,8.40
2019-05-02T01:02:23.788Z,8.40
2019-05-02T01:05:14.112Z,8.30
2019-05-02T01:08:03.176Z,8.30
2019-05-02T01:10:56.423Z,8.30
2019-05-02T01:13:42.427Z,8.20
2019-05-02T01:16:31.764Z,8.20
2019-05-02T01:19:20.702Z,8.10
2019-05-02T01:22:10.605Z,8.10
2019-05-02T01:25:00.731Z,8.10
2019-05-02T01:27:51.756Z,8.10
2019-05-02T01:30:58.860Z,8.10
2019-05-02T01:34:01.822Z,8.20
2019-05-02T01:36:57.590Z,8.20
2019-05-02T01:39:47.019Z,8.20
2019-05-02T01:42:39.991Z,8.20
2019-05-02T01:45:27.397Z,8.20
2019-05-02T01:48:16.297Z,8.20
2019-05-02T01:51:10.429Z,8.30
2019-05-02T01:53:56.301Z,8.40
2019-05-02T01:56:46.015Z,8.40
2019-05-02T01:59:35.153Z,8.40
2019-05-02T02:02:28.067Z,8.50
2019-05-02T02:05:15.570Z,8.50
2019-05-02T02:08:05.740Z,8.50
2019-05-02T02:10:56.085Z,8.50
2019-05-02T02:13:45.620Z,8.50
2019-05-02T02:16:35.180Z,8.60
2019-05-02T02:19:27.314Z,8.50
2019-05-02T02:22:18.246Z,8.60
2019-05-02T02:25:23.586Z,8.60
2019-05-02T02:28:12.754Z,8.60
2019-05-02T02:31:04.819Z,8.60
2019-05-02T02:33:53.014Z,8.60
2019-05-02T02:36:41.892Z,8.70
2019-05-02T02:39:30.942Z,8.70
2019-05-02T02:42:24.939Z,8.70
2019-05-02T02:45:20.318Z,8.60
2019-05-02T02:48:09.514Z,8.60
2019-05-02T02:50:58.303Z,8.60
2019-05-02T02:53:47.425Z,8.50
2019-05-02T02:56:40.456Z,8.50
2019-05-02T02:59:28.263Z,8.50
2019-05-02T03:02:17.707Z,8.50
2019-05-02T03:05:07.691Z,8.40
2019-05-02T03:07:59.500Z,8.40
2019-05-02T03:10:47.413Z,8.50
2019-05-02T03:13:52.812Z,8.50
2019-05-02T03:16:45.589Z,8.50
2019-05-02T03:19:27.201Z,8.60
2019-05-02T03:22:16.417Z,8.50
2019-05-02T03:25:07.431Z,8.60
2019-05-02T03:27:56.777Z,8.60
2019-05-02T03:30:46.580Z,8.70
2019-05-02T03:33:52.680Z,8.70
2019-05-02T03:36:30.592Z,8.70
2019-05-02T03:39:17.535Z,8.80
2019-05-02T03:42:08.076Z,8.80
2019-05-02T03:45:04.043Z,8.80
2019-05-02T03:47:49.132Z,8.80
2019-05-02T03:50:38.954Z,8.90
2019-05-02T03:53:27.997Z,8.90
2019-05-02T03:56:17.320Z,8.90
2019-05-02T03:59:06.847Z,8.90
2019-05-02T04:01:56.255Z,9.00
2019-05-02T04:04:46.004Z,8.90
2019-05-02T04:07:40.554Z,8.90
2019-05-02T04:10:52.742Z,9.00
2019-05-02T04:13:40.035Z,9.00
2019-05-02T04:16:30.334Z,9.00
2019-05-02T04:19:19.843Z,9.00
2019-05-02T04:22:11.892Z,9.00
2019-05-02T04:25:01.315Z,9.00
2019-05-02T04:27:50.819Z,9.10
2019-05-02T04:30:45.148Z,9.10
2019-05-02T04:33:34.617Z,9.10
2019-05-02T04:36:20.877Z,9.20
2019-05-02T04:39:15.131Z,9.20
2019-05-02T04:42:05.384Z,9.20
2019-05-02T04:45:11.676Z,9.20
2019-05-02T04:47:42.607Z,9.30
2019-05-02T04:50:31.895Z,9.30
2019-05-02T04:53:26.077Z,9.30
2019-05-02T04:56:11.357Z,9.40
2019-05-02T04:59:01.819Z,9.40
2019-05-02T05:01:57.098Z,9.40
2019-05-02T05:04:46.057Z,9.40
2019-05-02T05:07:41.004Z,9.40
2019-05-02T05:10:22.627Z,9.40
2019-05-02T05:13:12.085Z,9.40
2019-05-02T05:16:02.887Z,9.40
2019-05-02T05:18:53.256Z,9.40
2019-05-02T05:21:42.380Z,9.40
2019-05-02T05:24:42.348Z,9.40
2019-05-02T05:27:29.532Z,9.40
2019-05-02T05:30:18.874Z,9.50
2019-05-02T05:33:10.317Z,9.50
2019-05-02T05:35:58.739Z,9.60
2019-05-02T05:38:48.009Z,9.60
2019-05-02T05:41:37.866Z,9.70
2019-05-02T05:44:30.594Z,9.80
2019-05-02T05:47:17.582Z,9.90
2019-05-02T05:50:08.288Z,9.90
2019-05-02T05:52:59.290Z,9.90
2019-05-02T05:55:48.246Z,9.80
2019-05-02T05:58:40.002Z,9.80
2019-05-02T06:01:34.346Z,9.80
2019-05-02T06:04:23.373Z,9.90
2019-05-02T06:07:08.791Z,9.90
2019-05-02T06:10:02.400Z,9.90
2019-05-02T06:12:48.035Z,9.90
2019-05-02T06:15:39.054Z,9.90
2019-05-02T06:18:28.449Z,9.90
2019-05-02T06:21:18.415Z,10.00
2019-05-02T06:24:10.938Z,10.00
2019-05-02T06:26:57.611Z,10.00
2019-05-02T06:29:51.277Z,10.00
2019-05-02T06:32:37.339Z,10.10
2019-05-02T06:35:26.403Z,10.10
2019-05-02T06:38:15.719Z,10.10
2019-05-02T06:41:05.256Z,10.10
2019-05-02T06:43:54.256Z,10.10
2019-05-02T06:46:43.788Z,10.20
2019-05-02T06:49:33.171Z,10.20
2019-05-02T06:52:21.693Z,10.20
2019-05-02T06:55:11.052Z,10.20
2019-05-02T06:58:02.835Z,10.20
2019-05-02T07:00:58.377Z,10.20
2019-05-02T07:03:41.436Z,10.20
2019-05-02T07:06:42.187Z,10.40
2019-05-02T07:09:22.876Z,10.50
2019-05-02T07:12:14.741Z,10.50
2019-05-02T07:15:03.839Z,10.50
2019-05-02T07:17:55.176Z,10.60
2019-05-02T07:20:44.766Z,10.50
2019-05-02T07:23:33.930Z,10.50
2019-05-02T07:26:23.511Z,10.60
2019-05-02T07:29:17.158Z,10.50
2019-05-02T07:32:03.567Z,10.40
2019-05-02T07:34:52.691Z,10.30
2019-05-02T07:37:44.014Z,10.30
2019-05-02T07:40:32.712Z,10.30
2019-05-02T07:43:22.422Z,10.30
2019-05-02T07:46:16.264Z,10.30
2019-05-02T07:49:03.021Z,10.30
2019-05-02T07:51:57.268Z,10.30
2019-05-02T07:54:42.850Z,10.40
2019-05-02T07:57:32.411Z,10.40
2019-05-02T08:00:22.993Z,10.20
2019-05-02T08:03:11.916Z,10.20
2019-05-02T08:06:01.149Z,10.20
2019-05-02T08:08:50.072Z,10.20
2019-05-02T08:11:39.688Z,10.20
2019-05-02T08:14:34.033Z,10.10
2019-05-02T08:17:20.070Z,10.10
2019-05-02T08:20:13.549Z,10.00
2019-05-02T08:22:59.828Z,10.00
2019-05-02T08:25:49.215Z,10.00
2019-05-02T08:28:42.378Z,10.00
2019-05-02T08:31:31.863Z,10.00
2019-05-02T08:34:22.373Z,10.00
2019-05-02T08:37:11.087Z,10.00
2019-05-02T08:40:00.045Z,10.00
2019-05-02T08:42:52.577Z,10.00
2019-05-02T08:45:41.569Z,9.90
2019-05-02T08:48:30.899Z,9.90
2019-05-02T08:51:20.107Z,10.00
2019-05-02T08:54:09.489Z,10.00
2019-05-02T08:57:00.552Z,9.90
2019-05-02T08:59:50.638Z,10.00
2019-05-02T09:02:41.420Z,10.00
2019-05-02T09:05:30.348Z,10.00
2019-05-02T09:08:19.341Z,10.00
2019-05-02T09:11:07.922Z,10.00
2019-05-02T09:13:56.819Z,10.00
2019-05-02T09:16:45.409Z,10.00
2019-05-02T09:19:35.037Z,9.90
2019-05-02T09:22:24.139Z,9.90
2019-05-02T09:25:14.244Z,9.90
2019-05-02T09:28:03.005Z,10.00
2019-05-02T09:30:52.542Z,10.00
2019-05-02T09:33:46.841Z,10.10
2019-05-02T09:36:32.924Z,10.10
2019-05-02T09:39:22.770Z,10.00
2019-05-02T09:42:15.662Z,10.00
2019-05-02T09:45:04.041Z,10.00
2019-05-02T09:48:03.478Z,10.10
2019-05-02T09:50:43.566Z,10.00
2019-05-02T09:53:32.534Z,10.10
2019-05-02T09:56:22.068Z,10.10
2019-05-02T09:59:26.637Z,10.20
2019-05-02T10:02:03.103Z,10.20
2019-05-02T10:04:52.476Z,10.20
2019-05-02T10:07:41.998Z,10.30
2019-05-02T10:10:37.274Z,10.30
2019-05-02T10:13:23.408Z,10.30
2019-05-02T10:16:13.344Z,10.30
2019-05-02T10:19:09.535Z,10.30
2019-05-02T10:21:56.210Z,10.30
2019-05-02T10:24:44.242Z,10.30
2019-05-02T10:27:33.797Z,10.30
2019-05-02T10:30:25.395Z,10.40
2019-05-02T10:33:14.086Z,10.60
2019-05-02T10:36:03.358Z,11.00
2019-05-02T10:38:54.775Z,11.20
2019-05-02T10:41:43.821Z,11.50
2019-05-02T10:44:36.492Z,11.50
2019-05-02T10:47:24.729Z,11.50
2019-05-02T10:50:17.081Z,11.40
2019-05-02T10:53:12.211Z,11.40
2019-05-02T10:55:56.837Z,11.40
2019-05-02T10:58:46.372Z,11.40
2019-05-02T11:01:37.554Z,11.40
2019-05-02T11:04:29.314Z,11.30
2019-05-02T11:07:22.581Z,11.30
2019-05-02T11:10:08.672Z,11.20
2019-05-02T11:13:05.989Z,11.20
2019-05-02T11:15:54.725Z,11.20
2019-05-02T11:18:52.559Z,11.20
2019-05-02T11:21:53.487Z,11.20
2019-05-02T11:24:32.506Z,11.20
2019-05-02T11:27:22.162Z,11.30
2019-05-02T11:30:16.879Z,11.30
2019-05-02T11:33:03.755Z,11.40
2019-05-02T11:35:53.541Z,11.50
2019-05-02T11:38:45.566Z,11.60
2019-05-02T11:41:33.209Z,11.70
2019-05-02T11:44:22.677Z,11.90
2019-05-02T11:47:12.765Z,11.90
2019-05-02T11:50:02.567Z,11.90
2019-05-02T11:52:52.391Z,11.80
2019-05-02T11:55:43.466Z,11.60
2019-05-02T11:58:32.509Z,11.80
2019-05-02T12:01:35.513Z,12.40
2019-05-02T12:04:16.764Z,13.00
2019-05-02T12:07:04.849Z,13.30
2019-05-02T12:09:57.126Z,13.30
2019-05-02T12:12:44.076Z,13.30
2019-05-02T12:15:32.562Z,13.20
2019-05-02T12:18:23.331Z,13.00
2019-05-02T12:21:12.714Z,12.90
2019-05-02T12:24:02.458Z,12.90
2019-05-02T12:26:52.854Z,13.20
2019-05-02T12:29:42.490Z,13.30
2019-05-02T12:32:33.454Z,13.30
2019-05-02T12:35:23.300Z,13.30
2019-05-02T12:38:12.638Z,13.20
2019-05-02T12:41:02.704Z,13.20
2019-05-02T12:43:52.604Z,13.00
2019-05-02T12:46:42.296Z,12.80
2019-05-02T12:49:32.436Z,12.80
2019-05-02T12:52:22.661Z,12.90
2019-05-02T12:55:12.879Z,13.20
2019-05-02T12:58:03.221Z,13.40
2019-05-02T13:00:53.146Z,13.60
2019-05-02T13:03:47.225Z,13.40
2019-05-02T13:06:37.276Z,13.30
2019-05-02T13:09:26.870Z,13.20
2019-05-02T13:12:17.485Z,13.30
2019-05-02T13:15:08.759Z,13.40
2019-05-02T13:17:58.164Z,13.20
2019-05-02T13:20:47.601Z,13.20
2019-05-02T13:23:42.598Z,13.00
2019-05-02T13:26:32.220Z,12.90
2019-05-02T13:29:22.523Z,12.60
2019-05-02T13:32:18.582Z,12.60
2019-05-02T13:35:16.547Z,12.60
2019-05-02T13:38:05.680Z,12.60
2019-05-02T13:40:54.962Z,12.70
2019-05-02T13:43:46.343Z,12.80
2019-05-02T13:46:35.010Z,12.80
2019-05-02T13:49:24.190Z,13.00
2019-05-02T13:52:14.173Z,13.30
2019-05-02T13:55:05.503Z,13.50
2019-05-02T13:57:54.869Z,13.60
2019-05-02T14:00:47.893Z,13.90
2019-05-02T14:03:37.190Z,14.00
2019-05-02T14:06:30.275Z,14.20
2019-05-02T14:09:24.177Z,14.30
2019-05-02T14:12:27.116Z,14.40
2019-05-02T14:15:19.394Z,14.40
2019-05-02T14:18:09.958Z,14.40
2019-05-02T14:20:59.406Z,14.40
2019-05-02T14:23:48.878Z,14.60
2019-05-02T14:26:37.439Z,14.50
2019-05-02T14:29:26.747Z,14.70
2019-05-02T14:32:23.355Z,14.90
2019-05-02T14:35:12.743Z,14.80
2019-05-02T14:38:09.128Z,14.80
2019-05-02T14:41:00.101Z,14.50
2019-05-02T14:43:49.718Z,14.30
2019-05-02T14:46:39.635Z,14.20
2019-05-02T14:49:29.533Z,14.20
2019-05-02T14:52:19.055Z,14.10
2019-05-02T14:55:09.913Z,14.10
2019-05-02T14:58:02.225Z,13.90
2019-05-02T15:00:52.871Z,14.00
2019-05-02T15:03:42.304Z,14.10
2019-05-02T15:06:33.718Z,14.20
2019-05-02T15:09:26.630Z,14.60
2019-05-02T15:12:15.799Z,14.60
2019-05-02T15:15:04.531Z,14.60
2019-05-02T15:17:53.905Z,14.50
2019-05-02T15:20:42.926Z,14.50
2019-05-02T15:23:32.547Z,14.40
2019-05-02T15:26:21.159Z,14.40
2019-05-02T15:29:12.318Z,14.30
2019-05-02T15:32:18.425Z,14.20
2019-05-02T15:35:10.376Z,14.10
2019-05-02T15:38:02.764Z,14.00
2019-05-02T15:40:51.431Z,13.80
2019-05-02T15:43:44.188Z,13.70
2019-05-02T15:46:31.934Z,13.90
2019-05-02T15:49:22.202Z,13.90
2019-05-02T15:52:13.207Z,14.00
2019-05-02T15:55:04.117Z,13.80
2019-05-02T15:57:53.821Z,13.60
2019-05-02T16:00:44.599Z,13.40
2019-05-02T16:03:46.221Z,12.90
2019-05-02T16:06:34.493Z,12.40
2019-05-02T16:09:23.555Z,12.00
2019-05-02T16:12:12.348Z,11.70
2019-05-02T16:15:02.737Z,11.20
2019-05-02T16:17:56.740Z,10.90
2019-05-02T16:20:48.665Z,10.80
2019-05-02T16:23:35.842Z,10.80
2019-05-02T16:26:24.591Z,10.60
2019-05-02T16:29:19.516Z,10.50
2019-05-02T16:32:07.435Z,10.20
2019-05-02T16:35:07.266Z,10.10
2019-05-02T16:37:55.675Z,10.00
2019-05-02T16:40:42.616Z,9.90
2019-05-02T16:43:32.762Z,9.80
2019-05-02T16:46:22.472Z,9.80
2019-05-02T16:49:15.639Z,9.70
2019-05-02T16:52:07.323Z,9.50
2019-05-02T16:54:53.669Z,9.40
2019-05-02T16:57:42.945Z,9.30
2019-05-02T17:00:37.013Z,9.10
2019-05-02T17:03:26.401Z,9.00
2019-05-02T17:06:16.978Z,9.00
2019-05-02T17:09:28.706Z,9.20
2019-05-02T17:12:16.716Z,9.30
2019-05-02T17:15:26.246Z,9.30
2019-05-02T17:18:18.253Z,9.30
2019-05-02T17:21:06.579Z,9.40
2019-05-02T17:23:56.027Z,9.30
2019-05-02T17:26:45.099Z,9.20
2019-05-02T17:29:34.464Z,9.30
2019-05-02T17:32:23.384Z,9.30
2019-05-02T17:35:14.600Z,9.30
2019-05-02T17:38:04.446Z,9.30
2019-05-02T17:40:54.482Z,9.30
2019-05-02T17:43:44.455Z,9.30
2019-05-02T17:46:33.302Z,9.30
2019-05-02T17:49:23.625Z,9.30
2019-05-02T17:52:29.585Z,9.30
2019-05-02T17:55:19.286Z,9.30
2019-05-02T17:58:12.405Z,9.30
2019-05-02T18:01:02.428Z,9.30
2019-05-02T18:03:52.067Z,9.30
2019-05-02T18:06:41.720Z,9.30
2019-05-02T18:09:35.046Z,9.30
2019-05-02T18:12:23.329Z,9.30
2019-05-02T18:15:12.923Z,9.30
2019-05-02T18:18:06.449Z,9.30
2019-05-02T18:20:53.003Z,9.20
2019-05-02T18:23:42.792Z,9.20
2019-05-02T18:26:32.198Z,9.20
2019-05-02T18:29:21.787Z,9.20
2019-05-02T18:32:12.843Z,9.20
2019-05-02T18:35:06.049Z,9.20
2019-05-02T18:37:52.838Z,9.10
2019-05-02T18:40:42.685Z,9.00
2019-05-02T18:43:36.084Z,9.00
2019-05-02T18:46:23.133Z,8.90
2019-05-02T18:49:16.992Z,8.80
2019-05-02T18:52:03.240Z,8.90
2019-05-02T18:54:52.382Z,8.90
2019-05-02T18:57:42.378Z,8.80
2019-05-02T19:00:37.730Z,8.80
2019-05-02T19:03:23.352Z,8.80
2019-05-02T19:06:12.527Z,8.80
2019-05-02T19:09:05.573Z,8.80
2019-05-02T19:12:05.061Z,8.80
2019-05-02T19:14:45.355Z,8.70
2019-05-02T19:17:38.439Z,8.70
2019-05-02T19:20:30.270Z,8.70
2019-05-02T19:23:18.834Z,8.70
2019-05-02T19:26:10.715Z,8.70
2019-05-02T19:29:02.449Z,8.70
2019-05-02T19:31:52.455Z,8.70
2019-05-02T19:34:42.121Z,8.70
2019-05-02T19:37:31.646Z,8.60
2019-05-02T19:40:27.239Z,8.60
2019-05-02T19:43:14.888Z,8.60
2019-05-02T19:46:04.602Z,8.60
2019-05-02T19:48:53.913Z,8.60
2019-05-02T19:51:43.168Z,8.60
2019-05-02T19:54:39.414Z,8.50
2019-05-02T19:57:26.251Z,8.50
2019-05-02T20:00:13.020Z,8.50
2019-05-02T20:03:02.559Z,8.50
2019-05-02T20:05:56.663Z,8.50
2019-05-02T20:08:42.629Z,8.60
2019-05-02T20:11:33.016Z,8.50
2019-05-02T20:14:22.430Z,8.50
2019-05-02T20:17:14.922Z,8.40
2019-05-02T20:20:14.387Z,8.40
2019-05-02T20:23:15.204Z,8.40
2019-05-02T20:25:55.292Z,8.40
2019-05-02T20:28:44.366Z,8.30
2019-05-02T20:31:33.939Z,8.20
2019-05-02T20:34:23.099Z,8.20
2019-05-02T20:37:12.835Z,8.20
2019-05-02T20:40:02.857Z,8.20
2019-05-02T20:42:52.827Z,8.10
2019-05-02T20:45:42.775Z,8.00
2019-05-02T20:48:32.426Z,7.90
2019-05-02T20:51:22.728Z,7.90
2019-05-02T20:54:12.911Z,7.80
2019-05-02T20:57:02.517Z,7.70
2019-05-02T20:59:52.787Z,7.60
2019-05-02T21:02:42.475Z,7.50
2019-05-02T21:05:51.936Z,7.50
2019-05-02T21:08:42.480Z,7.40
2019-05-02T21:11:32.405Z,7.30
2019-05-02T21:14:22.260Z,7.20
2019-05-02T21:17:12.798Z,7.20
2019-05-02T21:20:02.633Z,7.10
2019-05-02T21:22:52.975Z,7.00
2019-05-02T21:25:42.918Z,7.00
2019-05-02T21:28:32.277Z,7.00
2019-05-02T21:31:22.492Z,6.90
2019-05-02T21:34:12.239Z,7.00
2019-05-02T21:37:02.524Z,7.10
2019-05-02T21:39:52.434Z,7.10
2019-05-02T21:42:42.521Z,7.00
2019-05-02T21:45:32.004Z,6.90
2019-05-02T21:48:21.917Z,6.90
2019-05-02T21:51:12.469Z,6.80
2019-05-02T21:54:05.995Z,6.70
2019-05-02T21:56:56.446Z,6.70
2019-05-02T21:59:46.150Z,6.60
2019-05-02T22:02:35.641Z,6.50
2019-05-02T22:05:24.976Z,6.50
2019-05-02T22:08:14.060Z,6.40
2019-05-02T22:11:02.658Z,6.50
2019-05-02T22:13:51.733Z,6.60
2019-05-02T22:16:42.082Z,6.80
2019-05-02T22:19:32.309Z,6.90
2019-05-02T22:22:22.849Z,6.90
2019-05-02T22:25:12.932Z,7.00
2019-05-02T22:28:02.116Z,6.90
2019-05-02T22:30:54.349Z,6.80
2019-05-02T22:33:44.560Z,6.70
2019-05-02T22:36:33.086Z,6.60
2019-05-02T22:39:23.673Z,6.50
2019-05-02T22:42:13.037Z,6.50
2019-05-02T22:45:04.579Z,6.30
2019-05-02T22:47:53.038Z,6.30
2019-05-02T22:50:42.300Z,6.20
2019-05-02T22:53:32.187Z,6.20
2019-05-02T22:56:22.269Z,6.10
2019-05-02T22:59:11.801Z,6.10
2019-05-02T23:02:02.118Z,6.10
2019-05-02T23:04:52.606Z,6.10
2019-05-02T23:07:42.315Z,6.00
2019-05-02T23:10:32.679Z,6.00
2019-05-02T23:13:22.004Z,6.00
2019-05-02T23:16:12.585Z,6.10
2019-05-02T23:19:02.795Z,6.10
2019-05-02T23:21:52.828Z,6.10
2019-05-02T23:24:52.844Z,6.30
2019-05-02T23:27:42.429Z,6.30
2019-05-02T23:30:31.934Z,6.20
2019-05-02T23:33:23.421Z,6.20
2019-05-02T23:36:12.548Z,6.10
2019-05-02T23:39:02.415Z,6.00
2019-05-02T23:41:52.531Z,6.00
2019-05-02T23:44:42.543Z,6.00
2019-05-02T23:47:33.033Z,5.90
2019-05-02T23:50:23.067Z,5.90
2019-05-02T23:53:12.865Z,5.90
2019-05-02T23:56:02.636Z,5.90
2019-05-02T23:58:52.063Z,5.90
